Phillips, Illinois
Current Conditions -  °F | °C
As of 5:55 PM on Wednesday 28 Jan 2015 (Local Time) from KCUL Reporting Station
Clear Clear  
Wind Chill: 32°   Ceiling: Unl
Heat Index: 40°   Visibility: 10mi
Dew Point: 31°   Wind: 12mph
Humidity: 72%   Direction: 130°SE
Pressure: 30.1"   Gusts: NA
Location:  38.1681°N, 88.0517°W
Report Text: KCUL 282355Z AUTO 13010KT 10SM CLR 04/00 A3010 RMK AO2 T00421004 10080 20042
Loading
Personal Weather Stations






























Interactive Weather Map New forecast layout! Learn more

10-Day Weather Forecast

Advertisements
Track Severe Weather on mobile